Time;durP1;ratioP1;P1;durP2;ratioP2;P2;SDS_P1;SDS_P2;PMS_P1;PMS_P2;Temp;Humidity;BMP_temperature;BMP_pressure;BME280_temperature;BME280_humidity;BME280_pressure;Samples;Min_cycle;Max_cycle;Signal;HPM_P1;HPM_P2
2021/07/20 17:38:44;;;;;;;3.72;2.30;;;;;;;26.99;51.53;101982.13;5345821;23;20058;-74
2021/07/20 17:41:16;;;;;;;8.25;2.40;;;;;;;26.99;51.53;101976.72;4946343;28;20139;-73
2021/07/20 17:43:47;;;;;;;7.93;3.40;;;;;;;26.99;51.83;101984.81;4947017;28;20127;-77
2021/07/20 17:46:26;;;;;;;8.88;3.92;;;;;;;26.99;52.08;101984.81;4949130;28;20028;-70
2021/07/20 17:49:00;;;;;;;8.52;3.30;;;;;;;27.02;51.88;101983.56;4949380;28;20054;-79
2021/07/20 17:51:35;;;;;;;5.90;2.70;;;;;;;27.01;51.87;101982.75;4948662;28;20031;-72
2021/07/20 17:54:01;;;;;;;6.32;2.08;;;;;;;27.05;51.75;101983.13;4948313;28;20097;-71
2021/07/20 17:56:27;;;;;;;5.30;1.80;;;;;;;27.06;51.69;101979.38;4930196;29;20385;-71
2021/07/20 17:58:52;;;;;;;4.35;2.30;;;;;;;27.06;51.49;101980.22;4950522;28;20514;-75
2021/07/20 18:01:18;;;;;;;2.90;1.73;;;;;;;27.06;51.40;101980.22;4950605;28;20744;-74
2021/07/20 18:03:43;;;;;;;4.13;1.90;;;;;;;27.06;51.22;101976.69;4932445;28;20445;-74
2021/07/20 18:06:09;;;;;;;4.93;2.00;;;;;;;27.06;51.17;101979.38;4917680;29;20035;-72
2021/07/20 18:08:34;;;;;;;3.15;1.90;;;;;;;27.05;50.83;101983.97;4935105;29;20718;-75
2021/07/20 18:11:01;;;;;;;2.90;1.60;;;;;;;27.06;50.83;101979.38;4934801;29;20350;-78
2021/07/20 18:13:27;;;;;;;5.22;1.80;;;;;;;27.07;50.74;101991.81;4933585;29;20031;-77
2021/07/20 18:15:52;;;;;;;4.20;1.80;;;;;;;27.06;50.49;101979.38;4934384;28;20053;-80
2021/07/20 18:18:18;;;;;;;2.90;1.73;;;;;;;27.06;50.23;101985.59;4959239;28;20476;-77
2021/07/20 18:20:45;;;;;;;4.95;1.55;;;;;;;27.07;50.12;101981.03;4933956;28;20817;-80
2021/07/20 18:23:11;;;;;;;4.45;1.77;;;;;;;27.07;49.89;101981.03;4918168;29;20502;-80
2021/07/20 18:25:38;;;;;;;3.83;1.80;;;;;;;27.08;49.89;101988.91;4934797;29;20180;-82
2021/07/20 18:28:04;;;;;;;3.33;1.90;;;;;;;27.07;49.71;101989.94;4960053;28;20039;-83
2021/07/20 18:30:29;;;;;;;6.82;1.60;;;;;;;27.07;49.77;101987.25;4931110;29;20040;-78
2021/07/20 18:32:54;;;;;;;3.70;2.00;;;;;;;27.06;49.72;101985.59;4948630;28;20035;-79
2021/07/20 18:35:20;;;;;;;4.35;2.05;;;;;;;27.06;49.31;101985.59;4934149;29;20387;-80
2021/07/20 18:37:45;;;;;;;4.95;1.80;;;;;;;27.05;49.51;101978.56;4948724;28;20047;-81
2021/07/20 18:40:11;;;;;;;5.80;1.50;;;;;;;27.06;49.63;101982.09;4943410;28;20059;-80
2021/07/20 18:42:37;;;;;;;6.90;1.90;;;;;;;27.06;49.76;101976.69;4944753;28;20058;-79
2021/07/20 18:45:03;;;;;;;8.15;1.80;;;;;;;27.06;49.86;101982.91;4918582;29;20039;-73
2021/07/20 18:47:28;;;;;;;4.20;2.10;;;;;;;27.06;49.90;101979.38;4933140;29;20067;-76
2021/07/20 18:49:54;;;;;;;5.25;1.98;;;;;;;27.06;50.13;101982.09;4949141;28;20042;-79
2021/07/20 18:52:19;;;;;;;3.00;1.58;;;;;;;27.06;50.20;101980.22;4939636;28;20114;-77
2021/07/20 18:54:45;;;;;;;6.70;2.05;;;;;;;27.07;50.10;101975.66;4933719;28;20039;-74
2021/07/20 18:57:10;;;;;;;3.47;1.70;;;;;;;27.08;50.07;101977.31;4946216;28;20493;-77
2021/07/20 18:59:36;;;;;;;5.20;1.85;;;;;;;27.09;50.21;101981.63;4944076;28;20043;-71
2021/07/20 19:02:01;;;;;;;3.40;1.80;;;;;;;27.10;50.50;101981.41;4931473;29;20035;-76
2021/07/20 19:04:26;;;;;;;4.45;2.00;;;;;;;27.11;50.22;101982.25;4933159;29;20039;-72
2021/07/20 19:06:52;;;;;;;2.97;1.75;;;;;;;27.13;50.31;101980.16;4933293;28;20468;-74
2021/07/20 19:09:18;;;;;;;5.68;2.50;;;;;;;27.13;50.16;101975.59;4941825;29;20389;-81
2021/07/20 19:11:43;;;;;;;3.20;1.95;;;;;;;27.14;50.40;101974.56;4934001;29;20031;-70
2021/07/20 19:14:08;;;;;;;2.45;1.73;;;;;;;27.15;50.04;101978.09;4917557;29;20507;-73
2021/07/20 19:16:35;;;;;;;8.07;2.05;;;;;;;27.16;50.13;101974.34;4922806;29;20035;-73
2021/07/20 19:19:02;;;;;;;3.88;2.00;;;;;;;27.16;50.31;101974.34;4958949;28;20067;-79
2021/07/20 19:21:28;;;;;;;5.03;2.10;;;;;;;27.18;49.96;101972.25;4934002;29;20075;-75
2021/07/20 19:23:54;;;;;;;3.63;2.00;;;;;;;27.18;49.84;101972.25;4930490;28;20377;-72
2021/07/20 19:26:19;;;;;;;6.68;1.77;;;;;;;27.19;49.86;101976.59;4940175;28;20122;-75
2021/07/20 19:28:45;;;;;;;11.30;2.63;;;;;;;27.19;50.06;101973.91;4921877;28;20563;-73
2021/07/20 19:31:10;;;;;;;3.78;1.92;;;;;;;27.20;50.03;101974.72;4932446;29;20039;-79
2021/07/20 19:33:35;;;;;;;3.55;2.15;;;;;;;27.22;50.10;101978.03;4933588;29;20031;-74
2021/07/20 19:36:01;;;;;;;7.28;2.10;;;;;;;27.22;50.25;101973.47;4933617;29;20035;-78
2021/07/20 19:38:26;;;;;;;4.32;2.00;;;;;;;27.22;49.96;101970.78;4943924;28;20114;-75
2021/07/20 19:40:52;;;;;;;4.75;1.95;;;;;;;27.24;49.92;101973.25;4950483;28;20648;-82
2021/07/20 19:43:17;;;;;;;4.43;2.40;;;;;;;27.25;50.10;101983.78;4933625;29;20047;-74
2021/07/20 19:45:47;;;;;;;4.20;2.00;;;;;;;27.24;50.10;101979.44;4920892;29;20403;-72
2021/07/20 19:48:14;;;;;;;3.50;2.00;;;;;;;27.28;50.38;101985.22;4957358;28;20117;-72
2021/07/20 19:50:42;;;;;;;4.05;2.22;;;;;;;27.28;50.40;101977.13;4937475;29;20117;-74
2021/07/20 19:53:07;;;;;;;3.38;2.25;;;;;;;27.29;50.32;101974.22;4952650;28;20035;-73
2021/07/20 19:55:33;;;;;;;3.35;2.30;;;;;;;27.30;50.50;101973.19;4936885;28;20051;-72
2021/07/20 19:57:59;;;;;;;3.92;2.17;;;;;;;27.31;50.54;101979.41;4955693;28;20053;-73
2021/07/20 20:00:25;;;;;;;4.38;2.00;;;;;;;27.32;50.51;101978.38;4937572;29;20035;-74
2021/07/20 20:02:55;;;;;;;5.25;2.20;;;;;;;27.32;50.38;101987.28;4954232;28;20117;-74
2021/07/20 20:05:20;;;;;;;5.38;2.75;;;;;;;27.34;50.16;101995.13;4937403;28;20290;-73
2021/07/20 20:07:46;;;;;;;4.18;2.25;;;;;;;27.34;50.60;101995.13;4947470;28;20046;-76
2021/07/20 20:10:14;;;;;;;5.00;2.38;;;;;;;27.35;50.31;101989.53;4932789;28;20035;-74
2021/07/20 20:12:40;;;;;;;3.47;2.00;;;;;;;27.35;50.39;101992.22;4954604;28;20472;-65
2021/07/20 20:15:07;;;;;;;4.38;2.10;;;;;;;27.35;50.33;101984.13;4920563;29;20046;-68
2021/07/20 20:17:33;;;;;;;5.22;2.22;;;;;;;27.35;50.41;101994.91;4951081;28;20085;-64
2021/07/20 20:19:59;;;;;;;3.55;2.22;;;;;;;27.34;50.38;101985.19;4938753;28;20046;-64
2021/07/20 20:22:24;;;;;;;4.88;2.30;;;;;;;27.35;50.28;101994.91;4958276;28;20048;-66
2021/07/20 20:24:50;;;;;;;4.90;2.38;;;;;;;27.34;50.30;101995.13;4951480;28;20689;-65
2021/07/20 20:27:16;;;;;;;3.05;2.30;;;;;;;27.33;50.17;101996.19;4953943;28;20123;-63
2021/07/20 20:29:41;;;;;;;2.67;1.92;;;;;;;27.34;50.21;102001.34;4942255;29;20544;-67
2021/07/20 20:32:08;;;;;;;3.20;2.20;;;;;;;27.34;50.25;102001.34;4947586;28;20043;-65
2021/07/20 20:34:34;;;;;;;3.38;2.20;;;;;;;27.34;50.11;102003.22;4935459;29;20051;-65
2021/07/20 20:37:00;;;;;;;2.63;2.00;;;;;;;27.33;49.82;101994.31;4953749;28;20039;-64
2021/07/20 20:39:25;;;;;;;4.40;2.25;;;;;;;27.33;50.00;102006.97;4949733;28;20109;-66
2021/07/20 20:41:51;;;;;;;3.90;2.20;;;;;;;27.32;49.81;102008.00;4932650;28;20043;-67
2021/07/20 20:44:16;;;;;;;4.78;2.10;;;;;;;27.33;50.03;102012.34;4950488;28;20304;-65
2021/07/20 20:46:42;;;;;;;3.22;2.35;;;;;;;27.33;49.87;102004.25;4930462;29;20393;-65
2021/07/20 20:49:07;;;;;;;2.28;1.77;;;;;;;27.32;49.94;102016.91;4918063;29;20369;-64
2021/07/20 20:51:33;;;;;;;4.40;2.35;;;;;;;27.32;49.92;102013.41;4949713;28;20427;-66
2021/07/20 20:53:58;;;;;;;3.60;2.05;;;;;;;27.31;49.66;102014.44;4931499;28;20039;-67
2021/07/20 20:56:25;;;;;;;3.80;1.95;;;;;;;27.32;49.71;102021.47;4916020;29;20045;-66
2021/07/20 20:58:51;;;;;;;3.75;1.92;;;;;;;27.32;49.82;102019.59;4937206;29;20081;-66
2021/07/20 21:01:16;;;;;;;3.67;1.95;;;;;;;27.31;49.38;102017.97;4940364;28;20059;-65
2021/07/20 21:03:42;;;;;;;3.00;1.90;;;;;;;27.32;49.44;102022.31;4934462;29;20031;-65
2021/07/20 21:06:08;;;;;;;2.25;1.50;;;;;;;27.33;49.46;102023.13;4948693;28;20480;-66
2021/07/20 21:08:33;;;;;;;5.07;2.42;;;;;;;27.32;49.54;102024.16;4957542;28;20035;-66
2021/07/20 21:10:59;;;;;;;2.70;2.17;;;;;;;27.32;49.42;102026.88;4935598;29;20043;-67
2021/07/20 21:13:24;;;;;;;4.00;2.33;;;;;;;27.32;49.51;102022.31;4935373;29;20095;-67
2021/07/20 21:15:50;;;;;;;2.85;1.67;;;;;;;27.33;49.48;102023.13;4952252;28;20500;-65
2021/07/20 21:18:15;;;;;;;3.47;2.15;;;;;;;27.33;49.55;102026.66;4941952;28;20046;-67
2021/07/20 21:20:41;;;;;;;6.03;2.50;;;;;;;27.34;49.57;102025.59;4933977;29;20063;-66
2021/07/20 21:23:06;;;;;;;3.22;1.77;;;;;;;27.34;49.52;102024.78;4940625;28;20042;-65
2021/07/20 21:25:32;;;;;;;3.42;1.83;;;;;;;27.32;49.44;102027.69;4951270;28;20047;-67
2021/07/20 21:27:58;;;;;;;2.78;1.85;;;;;;;27.34;49.65;102031.00;4927845;28;20055;-66
2021/07/20 21:30:24;;;;;;;5.65;1.80;;;;;;;27.34;49.43;102031.00;4963925;28;20043;-69
2021/07/20 21:32:49;;;;;;;6.88;1.90;;;;;;;27.35;49.61;102031.81;4959794;28;20484;-66
2021/07/20 21:35:15;;;;;;;14.85;2.65;;;;;;;27.32;49.69;102033.06;4964408;28;20547;-61
2021/07/20 21:37:41;;;;;;;12.30;2.80;;;;;;;27.27;49.78;102034.75;4944763;28;20031;-62
2021/07/20 21:40:09;;;;;;;8.63;2.17;;;;;;;27.17;49.87;102037.97;4926261;28;20054;-64
2021/07/20 21:42:38;;;;;;;8.25;2.35;;;;;;;27.11;50.12;102028.03;4946540;28;20118;-65
2021/07/20 21:45:04;;;;;;;5.28;2.35;;;;;;;27.09;50.34;102036.34;4952408;28;20040;-64
2021/07/20 21:47:30;;;;;;;7.63;2.65;;;;;;;27.10;50.20;102035.28;4938031;28;20063;-63
2021/07/20 21:49:56;;;;;;;5.35;2.10;;;;;;;27.11;50.36;102045.03;4951770;28;20051;-65
2021/07/20 21:52:21;;;;;;;5.45;2.80;;;;;;;27.13;50.32;102042.09;4934974;29;20035;-60
2021/07/20 21:54:47;;;;;;;5.68;2.00;;;;;;;27.14;50.41;102041.06;4933111;29;20130;-62
2021/07/20 21:57:14;;;;;;;7.55;2.33;;;;;;;27.17;49.92;102037.13;4934274;29;20400;-60
2021/07/20 21:59:41;;;;;;;5.30;2.03;;;;;;;27.20;50.23;102039.38;4940506;29;20090;-61
2021/07/20 22:02:08;;;;;;;3.65;1.98;;;;;;;27.21;50.05;102041.84;4935606;28;20035;-60
2021/07/20 22:04:34;;;;;;;4.28;1.90;;;;;;;27.22;50.12;102046.19;4952869;28;20035;-61
2021/07/20 22:07:00;;;;;;;6.22;2.08;;;;;;;27.24;50.07;102045.97;4952546;28;20055;-65
2021/07/20 22:09:26;;;;;;;6.00;2.60;;;;;;;27.26;50.05;102050.09;4937004;28;20448;-66
2021/07/20 22:11:51;;;;;;;3.63;2.20;;;;;;;27.26;49.93;102050.09;4935375;29;20042;-67
2021/07/20 22:14:17;;;;;;;4.10;2.35;;;;;;;27.27;49.88;102049.06;4919294;29;20049;-63
2021/07/20 22:16:43;;;;;;;5.32;2.10;;;;;;;27.29;49.78;102054.22;4952675;28;20070;-66
2021/07/20 22:19:10;;;;;;;5.10;2.08;;;;;;;27.29;49.74;102059.59;4941892;29;20428;-61
2021/07/20 22:21:37;;;;;;;3.88;2.03;;;;;;;27.29;49.84;102055.03;4952801;28;20110;-64
2021/07/20 22:24:08;;;;;;;3.22;2.00;;;;;;;27.29;49.83;102054.22;4951781;28;20058;-62
2021/07/20 22:26:39;;;;;;;3.95;1.92;;;;;;;27.30;49.67;102055.88;4935205;29;20446;-67
2021/07/20 22:29:20;;;;;;;2.90;2.00;;;;;;;27.27;49.73;102062.53;4939564;28;20038;-60
2021/07/20 22:31:47;;;;;;;4.20;1.90;;;;;;;27.30;49.88;102056.72;4951823;28;20114;-62
2021/07/20 22:34:12;;;;;;;3.13;2.00;;;;;;;27.31;49.83;102060.25;4934834;28;20035;-66
2021/07/20 22:36:39;;;;;;;6.00;2.33;;;;;;;27.31;49.82;102055.69;4934589;29;20046;-62
